sensor_id;sensor_type;location;lat;lon;timestamp;pressure;altitude;pressure_sealevel;temperature;humidity
34979;BME280;21185;50.978;13.720;2022-09-03T00:01:17;98461.47;;;16.86;54.99
34979;BME280;21185;50.978;13.720;2022-09-03T00:06:30;98466.69;;;16.86;55.19
34979;BME280;21185;50.978;13.720;2022-09-03T00:12:10;98445.13;;;16.83;55.14
34979;BME280;21185;50.978;13.720;2022-09-03T00:17:16;98440.28;;;16.80;55.16
34979;BME280;21185;50.978;13.720;2022-09-03T00:22:26;98430.59;;;16.74;55.31
34979;BME280;21185;50.978;13.720;2022-09-03T00:27:32;98434.59;;;16.70;55.43
34979;BME280;21185;50.978;13.720;2022-09-03T00:32:51;98430.13;;;16.64;55.53
34979;BME280;21185;50.978;13.720;2022-09-03T00:37:56;98425.47;;;16.60;55.48
34979;BME280;21185;50.978;13.720;2022-09-03T00:43:12;98418.81;;;16.57;55.48
34979;BME280;21185;50.978;13.720;2022-09-03T00:48:22;98427.88;;;16.55;55.55
34979;BME280;21185;50.978;13.720;2022-09-03T01:15:14;98428.53;;;16.22;56.09
34979;BME280;21185;50.978;13.720;2022-09-03T01:30:37;98423.63;;;16.06;55.86
34979;BME280;21185;50.978;13.720;2022-09-03T01:35:52;98426.81;;;16.01;56.29
34979;BME280;21185;50.978;13.720;2022-09-03T01:46:36;98426.78;;;15.95;56.10
34979;BME280;21185;50.978;13.720;2022-09-03T01:51:39;98432.41;;;15.92;56.16
34979;BME280;21185;50.978;13.720;2022-09-03T02:02:30;98429.13;;;15.83;56.35
34979;BME280;21185;50.978;13.720;2022-09-03T02:12:45;98423.44;;;15.73;56.30
34979;BME280;21185;50.978;13.720;2022-09-03T02:17:50;98432.66;;;15.69;56.60
34979;BME280;21185;50.978;13.720;2022-09-03T02:22:56;98427.41;;;15.69;56.23
34979;BME280;21185;50.978;13.720;2022-09-03T02:27:58;98431.78;;;15.62;56.11
34979;BME280;21185;50.978;13.720;2022-09-03T02:33:02;98429.31;;;15.53;56.39
34979;BME280;21185;50.978;13.720;2022-09-03T02:38:14;98438.53;;;15.49;56.60
34979;BME280;21185;50.978;13.720;2022-09-03T02:43:36;98434.69;;;15.45;56.73
34979;BME280;21185;50.978;13.720;2022-09-03T02:48:39;98430.22;;;15.39;56.61
34979;BME280;21185;50.978;13.720;2022-09-03T02:53:42;98431.59;;;15.35;56.74
34979;BME280;21185;50.978;13.720;2022-09-03T02:58:44;98433.59;;;15.33;56.59
34979;BME280;21185;50.978;13.720;2022-09-03T03:03:46;98427.13;;;15.29;56.71
34979;BME280;21185;50.978;13.720;2022-09-03T03:08:49;98427.50;;;15.26;56.84
34979;BME280;21185;50.978;13.720;2022-09-03T03:13:51;98420.84;;;15.23;56.82
34979;BME280;21185;50.978;13.720;2022-09-03T03:18:55;98409.75;;;15.21;57.08
34979;BME280;21185;50.978;13.720;2022-09-03T03:23:57;98408.69;;;15.16;57.02
34979;BME280;21185;50.978;13.720;2022-09-03T03:29:00;98412.69;;;15.12;57.21
34979;BME280;21185;50.978;13.720;2022-09-03T03:34:05;98419.28;;;15.08;57.31
34979;BME280;21185;50.978;13.720;2022-09-03T03:39:07;98415.25;;;15.05;57.29
34979;BME280;21185;50.978;13.720;2022-09-03T03:44:12;98421.66;;;15.03;57.33
34979;BME280;21185;50.978;13.720;2022-09-03T03:49:14;98422.03;;;15.00;57.36
34979;BME280;21185;50.978;13.720;2022-09-03T03:54:16;98423.38;;;14.96;57.36
34979;BME280;21185;50.978;13.720;2022-09-03T03:59:18;98419.53;;;14.92;57.39
34979;BME280;21185;50.978;13.720;2022-09-03T04:04:20;98415.69;;;14.87;57.40
34979;BME280;21185;50.978;13.720;2022-09-03T04:09:22;98408.41;;;14.83;57.69
34979;BME280;21185;50.978;13.720;2022-09-03T04:14:24;98415.78;;;14.79;57.72
34979;BME280;21185;50.978;13.720;2022-09-03T04:19:27;98406.72;;;14.75;57.75
34979;BME280;21185;50.978;13.720;2022-09-03T04:24:32;98412.47;;;14.71;57.79
34979;BME280;21185;50.978;13.720;2022-09-03T04:29:34;98406.81;;;14.67;57.86
34979;BME280;21185;50.978;13.720;2022-09-03T04:34:39;98401.59;;;14.67;57.84
34979;BME280;21185;50.978;13.720;2022-09-03T04:39:41;98399.16;;;14.66;57.84
34979;BME280;21185;50.978;13.720;2022-09-03T04:44:43;98408.00;;;14.65;58.11
34979;BME280;21185;50.978;13.720;2022-09-03T04:49:45;98405.56;;;14.63;58.12
34979;BME280;21185;50.978;13.720;2022-09-03T04:54:47;98410.00;;;14.63;58.02
34979;BME280;21185;50.978;13.720;2022-09-03T04:59:49;98409.63;;;14.66;58.21
34979;BME280;21185;50.978;13.720;2022-09-03T05:04:51;98406.81;;;14.67;58.29
34979;BME280;21185;50.978;13.720;2022-09-03T05:09:54;98412.13;;;14.74;58.37
34979;BME280;21185;50.978;13.720;2022-09-03T05:14:57;98401.91;;;14.79;58.51
34979;BME280;21185;50.978;13.720;2022-09-03T05:20:00;98402.59;;;14.87;58.57
34979;BME280;21185;50.978;13.720;2022-09-03T05:25:02;98398.44;;;14.93;58.68
34979;BME280;21185;50.978;13.720;2022-09-03T05:30:05;98402.91;;;14.99;58.86
34979;BME280;21185;50.978;13.720;2022-09-03T05:35:08;98397.56;;;15.07;58.90
34979;BME280;21185;50.978;13.720;2022-09-03T05:40:11;98405.09;;;15.17;58.90
34979;BME280;21185;50.978;13.720;2022-09-03T05:45:13;98411.44;;;15.29;58.89
34979;BME280;21185;50.978;13.720;2022-09-03T05:50:15;98405.06;;;15.38;58.81
34979;BME280;21185;50.978;13.720;2022-09-03T05:55:18;98403.13;;;15.47;58.98
34979;BME280;21185;50.978;13.720;2022-09-03T06:00:20;98410.47;;;15.58;58.89
34979;BME280;21185;50.978;13.720;2022-09-03T06:05:22;98412.50;;;15.63;58.85
34979;BME280;21185;50.978;13.720;2022-09-03T06:10:24;98412.53;;;15.69;59.09
34979;BME280;21185;50.978;13.720;2022-09-03T06:15:35;98414.56;;;15.74;59.12
34979;BME280;21185;50.978;13.720;2022-09-03T06:20:37;98421.91;;;15.85;59.28
34979;BME280;21185;50.978;13.720;2022-09-03T06:25:39;98426.34;;;15.91;59.13
34979;BME280;21185;50.978;13.720;2022-09-03T06:30:42;98427.81;;;16.00;59.21
34979;BME280;21185;50.978;13.720;2022-09-03T06:35:45;98424.84;;;16.10;59.42
34979;BME280;21185;50.978;13.720;2022-09-03T06:40:52;98433.56;;;16.17;59.00
34979;BME280;21185;50.978;13.720;2022-09-03T06:46:00;98430.56;;;16.27;58.94
34979;BME280;21185;50.978;13.720;2022-09-03T06:51:03;98428.59;;;16.35;58.91
34979;BME280;21185;50.978;13.720;2022-09-03T06:56:08;98426.03;;;16.48;58.61
34979;BME280;21185;50.978;13.720;2022-09-03T07:01:13;98428.50;;;16.63;58.45
34979;BME280;21185;50.978;13.720;2022-09-03T07:06:17;98418.69;;;16.72;58.44
34979;BME280;21185;50.978;13.720;2022-09-03T07:11:21;98413.06;;;16.81;58.44
34979;BME280;21185;50.978;13.720;2022-09-03T07:16:27;98418.72;;;16.92;58.53
34979;BME280;21185;50.978;13.720;2022-09-03T07:21:31;98410.28;;;17.03;58.36
34979;BME280;21185;50.978;13.720;2022-09-03T07:26:36;98410.88;;;17.11;58.18
34979;BME280;21185;50.978;13.720;2022-09-03T07:31:41;98411.91;;;17.17;58.24
34979;BME280;21185;50.978;13.720;2022-09-03T07:36:45;98404.66;;;17.26;58.18
34979;BME280;21185;50.978;13.720;2022-09-03T07:41:49;98397.78;;;17.31;58.06
34979;BME280;21185;50.978;13.720;2022-09-03T07:46:51;98400.41;;;17.38;57.70
34979;BME280;21185;50.978;13.720;2022-09-03T07:51:54;98396.78;;;17.52;57.92
34979;BME280;21185;50.978;13.720;2022-09-03T07:56:55;98399.22;;;17.67;57.71
34979;BME280;21185;50.978;13.720;2022-09-03T08:01:58;98402.44;;;17.75;57.48
34979;BME280;21185;50.978;13.720;2022-09-03T08:07:00;98400.19;;;17.86;57.54
34979;BME280;21185;50.978;13.720;2022-09-03T08:12:02;98398.16;;;17.94;57.24
34979;BME280;21185;50.978;13.720;2022-09-03T08:17:04;98395.28;;;18.02;57.07
34979;BME280;21185;50.978;13.720;2022-09-03T08:22:06;98404.34;;;18.13;57.00
34979;BME280;21185;50.978;13.720;2022-09-03T08:27:08;98397.84;;;18.22;56.49
34979;BME280;21185;50.978;13.720;2022-09-03T08:32:10;98399.81;;;18.33;56.45
34979;BME280;21185;50.978;13.720;2022-09-03T08:37:15;98398.38;;;18.44;56.49
34979;BME280;21185;50.978;13.720;2022-09-03T08:43:18;98394.28;;;18.55;56.28
34979;BME280;21185;50.978;13.720;2022-09-03T08:48:13;98391.81;;;18.66;56.13
34979;BME280;21185;50.978;13.720;2022-09-03T08:58:25;98385.22;;;18.89;55.24
34979;BME280;21185;50.978;13.720;2022-09-03T09:24:28;98371.13;;;19.33;53.98
34979;BME280;21185;50.978;13.720;2022-09-03T09:29:37;98375.09;;;19.42;53.50
34979;BME280;21185;50.978;13.720;2022-09-03T09:34:39;98363.91;;;19.47;53.31
34979;BME280;21185;50.978;13.720;2022-09-03T09:39:55;98355.34;;;19.58;53.03
34979;BME280;21185;50.978;13.720;2022-09-03T09:45:08;98358.41;;;19.73;52.68
34979;BME280;21185;50.978;13.720;2022-09-03T09:50:18;98352.06;;;19.81;52.59
34979;BME280;21185;50.978;13.720;2022-09-03T09:55:29;98346.06;;;19.92;52.97
34979;BME280;21185;50.978;13.720;2022-09-03T10:00:31;98347.00;;;19.97;52.44
34979;BME280;21185;50.978;13.720;2022-09-03T10:05:35;98339.63;;;20.06;52.23
34979;BME280;21185;50.978;13.720;2022-09-03T10:10:43;98343.34;;;20.17;51.62
34979;BME280;21185;50.978;13.720;2022-09-03T10:21:12;98340.44;;;20.36;50.71
34979;BME280;21185;50.978;13.720;2022-09-03T10:26:19;98326.84;;;20.40;50.80
34979;BME280;21185;50.978;13.720;2022-09-03T10:53:37;98317.13;;;20.40;49.22
34979;BME280;21185;50.978;13.720;2022-09-03T11:04:16;98305.59;;;20.64;48.55
34979;BME280;21185;50.978;13.720;2022-09-03T11:14:43;98293.25;;;20.88;48.61
34979;BME280;21185;50.978;13.720;2022-09-03T11:19:50;98286.47;;;20.81;48.77
34979;BME280;21185;50.978;13.720;2022-09-03T11:24:57;98296.56;;;20.84;48.40
34979;BME280;21185;50.978;13.720;2022-09-03T11:30:05;98288.44;;;20.97;48.02
34979;BME280;21185;50.978;13.720;2022-09-03T11:35:22;98283.38;;;21.07;48.29
34979;BME280;21185;50.978;13.720;2022-09-03T11:40:36;98283.75;;;21.22;48.00
34979;BME280;21185;50.978;13.720;2022-09-03T11:45:39;98284.78;;;21.21;48.11
34979;BME280;21185;50.978;13.720;2022-09-03T11:50:51;98281.47;;;21.26;47.61
34979;BME280;21185;50.978;13.720;2022-09-03T12:01:10;98283.63;;;21.17;47.80
34979;BME280;21185;50.978;13.720;2022-09-03T12:06:33;98286.13;;;21.00;47.71
34979;BME280;21185;50.978;13.720;2022-09-03T12:22:32;98278.44;;;20.87;47.81
34979;BME280;21185;50.978;13.720;2022-09-03T12:27:43;98273.97;;;21.11;47.21
34979;BME280;21185;50.978;13.720;2022-09-03T12:32:45;98264.47;;;21.10;47.16
34979;BME280;21185;50.978;13.720;2022-09-03T12:37:51;98267.25;;;21.27;47.13
34979;BME280;21185;50.978;13.720;2022-09-03T12:43:14;98267.81;;;21.41;47.15
34979;BME280;21185;50.978;13.720;2022-09-03T12:48:37;98259.31;;;21.15;46.98
34979;BME280;21185;50.978;13.720;2022-09-03T12:53:44;98253.34;;;21.08;46.61
34979;BME280;21185;50.978;13.720;2022-09-03T12:58:52;98259.56;;;21.25;46.76
34979;BME280;21185;50.978;13.720;2022-09-03T13:09:03;98252.75;;;21.53;46.40
34979;BME280;21185;50.978;13.720;2022-09-03T13:14:11;98244.00;;;21.64;45.75
34979;BME280;21185;50.978;13.720;2022-09-03T13:30:11;98236.53;;;21.61;45.65
34979;BME280;21185;50.978;13.720;2022-09-03T13:35:37;98237.69;;;21.65;46.03
34979;BME280;21185;50.978;13.720;2022-09-03T13:40:55;98236.22;;;21.57;46.24
34979;BME280;21185;50.978;13.720;2022-09-03T13:46:02;98234.06;;;21.43;46.05
34979;BME280;21185;50.978;13.720;2022-09-03T13:51:09;98227.06;;;21.37;46.26
34979;BME280;21185;50.978;13.720;2022-09-03T14:01:57;98229.91;;;21.47;45.83
34979;BME280;21185;50.978;13.720;2022-09-03T14:07:10;98230.59;;;21.54;45.15
34979;BME280;21185;50.978;13.720;2022-09-03T14:12:35;98217.50;;;21.59;45.19
34979;BME280;21185;50.978;13.720;2022-09-03T14:17:51;98208.88;;;21.63;45.08
34979;BME280;21185;50.978;13.720;2022-09-03T14:39:42;98218.16;;;22.06;44.26
34979;BME280;21185;50.978;13.720;2022-09-03T14:45:01;98215.91;;;22.15;44.59
34979;BME280;21185;50.978;13.720;2022-09-03T14:55:41;98213.84;;;22.17;44.25
34979;BME280;21185;50.978;13.720;2022-09-03T15:11:34;98222.16;;;22.09;43.49
34979;BME280;21185;50.978;13.720;2022-09-03T15:37:51;98206.94;;;22.16;43.13
34979;BME280;21185;50.978;13.720;2022-09-03T15:43:14;98214.88;;;22.16;42.83
34979;BME280;21185;50.978;13.720;2022-09-03T15:53:35;98215.53;;;22.23;43.26
34979;BME280;21185;50.978;13.720;2022-09-03T15:58:47;98224.41;;;22.17;43.43
34979;BME280;21185;50.978;13.720;2022-09-03T16:09:02;98222.94;;;22.09;43.55
34979;BME280;21185;50.978;13.720;2022-09-03T16:14:09;98225.50;;;22.04;43.29
34979;BME280;21185;50.978;13.720;2022-09-03T16:24:46;98221.31;;;21.80;43.70
34979;BME280;21185;50.978;13.720;2022-09-03T16:30:10;98213.91;;;21.65;43.77
34979;BME280;21185;50.978;13.720;2022-09-03T16:40:46;98231.66;;;21.41;44.56
34979;BME280;21185;50.978;13.720;2022-09-03T16:46:13;98226.97;;;21.31;44.77
34979;BME280;21185;50.978;13.720;2022-09-03T17:02:14;98211.34;;;21.07;44.98
34979;BME280;21185;50.978;13.720;2022-09-03T17:13:13;98212.28;;;20.89;45.54
34979;BME280;21185;50.978;13.720;2022-09-03T17:35:06;98235.66;;;20.50;46.58
34979;BME280;21185;50.978;13.720;2022-09-03T17:45:42;98232.38;;;20.25;47.38
34979;BME280;21185;50.978;13.720;2022-09-03T17:56:34;98240.31;;;20.07;48.34
34979;BME280;21185;50.978;13.720;2022-09-03T18:01:51;98249.34;;;19.99;48.59
34979;BME280;21185;50.978;13.720;2022-09-03T18:07:07;98248.84;;;19.90;49.28
34979;BME280;21185;50.978;13.720;2022-09-03T18:17:42;98266.63;;;19.77;49.42
34979;BME280;21185;50.978;13.720;2022-09-03T18:22:52;98264.88;;;19.70;49.31
34979;BME280;21185;50.978;13.720;2022-09-03T18:28:17;98282.94;;;19.67;49.57
34979;BME280;21185;50.978;13.720;2022-09-03T18:33:39;98288.28;;;19.60;49.37
34979;BME280;21185;50.978;13.720;2022-09-03T18:39:25;98286.31;;;19.56;49.83
34979;BME280;21185;50.978;13.720;2022-09-03T18:51:11;98288.91;;;19.37;50.70
34979;BME280;21185;50.978;13.720;2022-09-03T18:56:44;98294.22;;;19.31;50.49
34979;BME280;21185;50.978;13.720;2022-09-03T19:02:56;98296.34;;;19.22;50.61
34979;BME280;21185;50.978;13.720;2022-09-03T19:08:15;98302.03;;;19.19;51.14
34979;BME280;21185;50.978;13.720;2022-09-03T19:13:41;98299.25;;;19.14;51.06
34979;BME280;21185;50.978;13.720;2022-09-03T19:24:29;98291.84;;;19.04;51.54
34979;BME280;21185;50.978;13.720;2022-09-03T19:35:25;98303.00;;;19.00;51.80
34979;BME280;21185;50.978;13.720;2022-09-03T19:57:59;98311.38;;;18.90;52.57
34979;BME280;21185;50.978;13.720;2022-09-03T20:03:41;98321.53;;;18.87;52.52
34979;BME280;21185;50.978;13.720;2022-09-03T20:09:09;98322.97;;;18.83;52.92
34979;BME280;21185;50.978;13.720;2022-09-03T20:14:32;98329.06;;;18.76;53.02
34979;BME280;21185;50.978;13.720;2022-09-03T20:24:56;98336.00;;;18.71;53.43
34979;BME280;21185;50.978;13.720;2022-09-03T20:30:17;98337.44;;;18.67;53.56
34979;BME280;21185;50.978;13.720;2022-09-03T20:51:26;98352.03;;;18.56;54.08
34979;BME280;21185;50.978;13.720;2022-09-03T21:07:15;98351.59;;;18.59;54.08
34979;BME280;21185;50.978;13.720;2022-09-03T21:28:56;98351.31;;;18.36;54.67
34979;BME280;21185;50.978;13.720;2022-09-03T21:34:10;98353.19;;;18.29;54.59
34979;BME280;21185;50.978;13.720;2022-09-03T21:39:20;98353.00;;;18.24;54.94
34979;BME280;21185;50.978;13.720;2022-09-03T21:49:57;98367.34;;;18.21;54.93
34979;BME280;21185;50.978;13.720;2022-09-03T22:01:04;98379.06;;;18.19;55.15
34979;BME280;21185;50.978;13.720;2022-09-03T22:06:14;98377.47;;;18.18;55.15
34979;BME280;21185;50.978;13.720;2022-09-03T22:11:28;98375.47;;;18.13;55.47
34979;BME280;21185;50.978;13.720;2022-09-03T22:17:29;98379.31;;;18.10;55.78
34979;BME280;21185;50.978;13.720;2022-09-03T22:22:37;98373.47;;;18.08;55.87
34979;BME280;21185;50.978;13.720;2022-09-03T22:33:14;98370.84;;;18.08;56.14
34979;BME280;21185;50.978;13.720;2022-09-03T22:54:40;98373.09;;;17.92;56.02
34979;BME280;21185;50.978;13.720;2022-09-03T23:00:00;98362.81;;;17.90;56.58
34979;BME280;21185;50.978;13.720;2022-09-03T23:05:06;98369.47;;;17.93;56.49
34979;BME280;21185;50.978;13.720;2022-09-03T23:10:13;98371.47;;;17.97;56.33
34979;BME280;21185;50.978;13.720;2022-09-03T23:15:28;98367.84;;;17.98;56.90
34979;BME280;21185;50.978;13.720;2022-09-03T23:20:35;98373.69;;;18.00;56.85
34979;BME280;21185;50.978;13.720;2022-09-03T23:25:43;98374.28;;;18.02;57.03
34979;BME280;21185;50.978;13.720;2022-09-03T23:30:46;98369.63;;;18.04;56.96
34979;BME280;21185;50.978;13.720;2022-09-03T23:35:55;98375.50;;;18.06;56.96
34979;BME280;21185;50.978;13.720;2022-09-03T23:41:03;98379.94;;;18.06;57.20
34979;BME280;21185;50.978;13.720;2022-09-03T23:51:52;98375.50;;;18.06;57.15
34979;BME280;21185;50.978;13.720;2022-09-03T23:57:16;98376.91;;;18.02;57.34
